N557DE KABQ-KSAN
Flight info
| Callsign | N557DE |
|---|---|
| Flight time | 1h 33m |
| Altitude | 30000 |
| Route | ADYOS3 ZUN J6 DRK J96 PKE LUCKI1 |
| Aircraft | E50P/L-VGDW/C |
Departure
| Time | 2026-04-22 00:22 |
|---|---|
| Airport | Albuquerque International Sunport (KABQ) |
Arrival
| Time | 2026-04-22 01:55 |
|---|---|
| Airport | San Diego International Airport (KSAN) |
| Time | Latitude | Longitude | Altitude | Speed | Heading |
|---|---|---|---|---|---|
| 2026-04-22 00:06 | 35.03599 | -106.61897 | 5317 ft | 0 kts | 105° |
| 2026-04-22 00:15 | 35.03599 | -106.61896 | 5317 ft | 0 kts | 105° |
| 2026-04-22 00:16 | 35.03590 | -106.61859 | 5317 ft | 11 kts | 105° |
| 2026-04-22 00:16 | 35.03608 | -106.61739 | 5317 ft | 18 kts | 71° |
| 2026-04-22 00:17 | 35.03612 | -106.61607 | 5317 ft | 13 kts | 192° |
| 2026-04-22 00:17 | 35.03562 | -106.61656 | 5317 ft | 18 kts | 231° |
| 2026-04-22 00:17 | 35.03455 | -106.61815 | 5317 ft | 30 kts | 223° |
| 2026-04-22 00:17 | 35.03271 | -106.62022 | 5317 ft | 42 kts | 230° |
| 2026-04-22 00:18 | 35.03048 | -106.62309 | 5317 ft | 52 kts | 222° |
| 2026-04-22 00:18 | 35.02761 | -106.62641 | 5317 ft | 62 kts | 224° |
| 2026-04-22 00:18 | 35.02473 | -106.62984 | 5317 ft | 44 kts | 229° |
| 2026-04-22 00:18 | 35.02302 | -106.63118 | 5317 ft | 17 kts | 128° |
| 2026-04-22 00:19 | 35.02255 | -106.63041 | 5317 ft | 10 kts | 89° |
| 2026-04-22 00:19 | 35.02264 | -106.63019 | 5317 ft | 0 kts | 46° |
| 2026-04-22 00:21 | 35.02312 | -106.62959 | 5317 ft | 29 kts | 45° |
| 2026-04-22 00:22 | 35.02565 | -106.62652 | 5317 ft | 74 kts | 41° |
| 2026-04-22 00:22 | 35.03039 | -106.62079 | 5317 ft | 119 kts | 44° |
| 2026-04-22 00:22 | 35.03735 | -106.61240 | 5318 ft | 163 kts | 44° |
| 2026-04-22 00:22 | 35.04511 | -106.60260 | 6035 ft | 150 kts | 45° |
| 2026-04-22 00:23 | 35.05197 | -106.59302 | 6560 ft | 162 kts | 41° |
| 2026-04-22 00:23 | 35.06060 | -106.58376 | 7059 ft | 168 kts | 18° |
| 2026-04-22 00:23 | 35.07165 | -106.58365 | 7581 ft | 161 kts | 324° |
| 2026-04-22 00:23 | 35.07741 | -106.59413 | 8316 ft | 149 kts | 271° |
| 2026-04-22 00:24 | 35.07371 | -106.60552 | 9078 ft | 147 kts | 237° |
| 2026-04-22 00:24 | 35.06797 | -106.61559 | 9811 ft | 142 kts | 241° |
| 2026-04-22 00:24 | 35.06271 | -106.62576 | 10430 ft | 142 kts | 242° |
| 2026-04-22 00:24 | 35.05749 | -106.63603 | 11001 ft | 145 kts | 242° |
| 2026-04-22 00:25 | 35.05211 | -106.64670 | 11517 ft | 151 kts | 242° |
| 2026-04-22 00:25 | 35.04651 | -106.65787 | 12034 ft | 158 kts | 242° |
| 2026-04-22 00:25 | 35.04065 | -106.66963 | 12552 ft | 166 kts | 242° |
| 2026-04-22 00:25 | 35.03452 | -106.68199 | 13071 ft | 175 kts | 242° |
| 2026-04-22 00:26 | 35.02883 | -106.69538 | 13586 ft | 182 kts | 256° |
| 2026-04-22 00:26 | 35.02868 | -106.71100 | 14113 ft | 191 kts | 280° |
| 2026-04-22 00:26 | 35.03224 | -106.72705 | 14639 ft | 202 kts | 286° |
| 2026-04-22 00:26 | 35.03697 | -106.74385 | 15164 ft | 213 kts | 288° |
| 2026-04-22 00:27 | 35.04214 | -106.76130 | 15680 ft | 225 kts | 288° |
| 2026-04-22 00:27 | 35.04611 | -106.78007 | 16194 ft | 235 kts | 275° |
| 2026-04-22 00:27 | 35.04647 | -106.80039 | 16715 ft | 246 kts | 269° |
| 2026-04-22 00:27 | 35.04615 | -106.82175 | 17229 ft | 258 kts | 269° |
| 2026-04-22 00:28 | 35.04594 | -106.84420 | 17740 ft | 270 kts | 270° |
| 2026-04-22 00:28 | 35.04603 | -106.86751 | 18249 ft | 281 kts | 271° |
| 2026-04-22 00:28 | 35.04634 | -106.89185 | 18759 ft | 292 kts | 270° |
| 2026-04-22 00:28 | 35.04640 | -106.91702 | 19267 ft | 302 kts | 270° |
| 2026-04-22 00:29 | 35.04621 | -106.94290 | 19771 ft | 310 kts | 269° |
| 2026-04-22 00:29 | 35.04582 | -106.96953 | 20277 ft | 317 kts | 269° |
| 2026-04-22 00:29 | 35.04529 | -106.99667 | 20781 ft | 324 kts | 269° |
| 2026-04-22 00:29 | 35.04465 | -107.02433 | 21285 ft | 329 kts | 268° |
| 2026-04-22 00:30 | 35.04392 | -107.05270 | 21793 ft | 333 kts | 268° |
| 2026-04-22 00:30 | 35.04314 | -107.08086 | 22284 ft | 335 kts | 268° |
| 2026-04-22 00:30 | 35.04232 | -107.10923 | 22797 ft | 337 kts | 268° |
| 2026-04-22 00:30 | 35.04148 | -107.13796 | 23301 ft | 339 kts | 268° |
| 2026-04-22 00:31 | 35.04061 | -107.16677 | 23802 ft | 340 kts | 268° |
| 2026-04-22 00:31 | 35.03974 | -107.19555 | 24301 ft | 341 kts | 268° |
| 2026-04-22 00:31 | 35.03885 | -107.22443 | 24801 ft | 341 kts | 268° |
| 2026-04-22 00:31 | 35.03798 | -107.25328 | 25300 ft | 340 kts | 268° |
| 2026-04-22 00:32 | 35.03710 | -107.28202 | 25798 ft | 339 kts | 268° |
| 2026-04-22 00:32 | 35.03622 | -107.31063 | 26295 ft | 337 kts | 268° |
| 2026-04-22 00:32 | 35.03535 | -107.33903 | 26792 ft | 335 kts | 268° |
| 2026-04-22 00:32 | 35.03447 | -107.36736 | 27289 ft | 333 kts | 268° |
| 2026-04-22 00:33 | 35.03359 | -107.39550 | 27787 ft | 331 kts | 268° |
| 2026-04-22 00:33 | 35.03271 | -107.42374 | 28290 ft | 328 kts | 268° |
| 2026-04-22 00:33 | 35.03183 | -107.45131 | 28786 ft | 325 kts | 268° |
| 2026-04-22 00:33 | 35.03096 | -107.47867 | 29255 ft | 322 kts | 268° |
| 2026-04-22 00:34 | 35.03008 | -107.50593 | 29647 ft | 322 kts | 268° |
| 2026-04-22 00:34 | 35.02920 | -107.53325 | 29948 ft | 325 kts | 268° |
| 2026-04-22 00:34 | 35.02830 | -107.56104 | 30064 ft | 332 kts | 268° |
| 2026-04-22 00:35 | 35.02641 | -107.61872 | 30134 ft | 350 kts | 268° |
| 2026-04-22 00:35 | 35.02439 | -107.67936 | 30132 ft | 365 kts | 268° |
| 2026-04-22 00:36 | 35.02226 | -107.74223 | 30131 ft | 377 kts | 268° |
| 2026-04-22 00:36 | 35.02002 | -107.80739 | 30130 ft | 386 kts | 268° |
| 2026-04-22 00:37 | 35.01772 | -107.87329 | 30130 ft | 393 kts | 268° |
| 2026-04-22 00:37 | 35.01535 | -107.94024 | 30130 ft | 398 kts | 268° |
| 2026-04-22 00:38 | 35.01292 | -108.00775 | 30129 ft | 401 kts | 268° |
| 2026-04-22 00:38 | 35.01042 | -108.07592 | 30129 ft | 404 kts | 268° |
| 2026-04-22 00:39 | 35.00787 | -108.14439 | 30129 ft | 406 kts | 268° |
| 2026-04-22 00:39 | 35.00526 | -108.21352 | 30129 ft | 407 kts | 267° |
| 2026-04-22 00:40 | 35.00264 | -108.28184 | 30129 ft | 408 kts | 267° |
| 2026-04-22 00:40 | 34.99993 | -108.35154 | 30129 ft | 409 kts | 267° |
| 2026-04-22 00:41 | 34.99721 | -108.42063 | 30137 ft | 409 kts | 267° |
| 2026-04-22 00:41 | 34.99445 | -108.48986 | 30138 ft | 409 kts | 267° |
| 2026-04-22 00:42 | 34.99164 | -108.55902 | 30193 ft | 408 kts | 267° |
| 2026-04-22 00:42 | 34.98878 | -108.62829 | 30131 ft | 410 kts | 267° |
| 2026-04-22 00:43 | 34.98586 | -108.69811 | 30129 ft | 410 kts | 267° |
| 2026-04-22 00:43 | 34.98292 | -108.76745 | 30129 ft | 410 kts | 267° |
| 2026-04-22 00:44 | 34.97994 | -108.83685 | 30129 ft | 410 kts | 267° |
| 2026-04-22 00:44 | 34.97693 | -108.90616 | 30129 ft | 410 kts | 267° |
| 2026-04-22 00:45 | 34.97387 | -108.97555 | 30129 ft | 410 kts | 267° |
| 2026-04-22 00:45 | 34.97076 | -109.04483 | 30129 ft | 410 kts | 267° |
| 2026-04-22 00:46 | 34.96755 | -109.11471 | 30129 ft | 410 kts | 266° |
| 2026-04-22 00:46 | 34.96366 | -109.18405 | 30129 ft | 411 kts | 266° |
| 2026-04-22 00:47 | 34.95931 | -109.25333 | 30128 ft | 411 kts | 265° |
| 2026-04-22 00:47 | 34.95476 | -109.32262 | 30129 ft | 411 kts | 265° |
| 2026-04-22 00:48 | 34.95014 | -109.39183 | 30129 ft | 411 kts | 265° |
| 2026-04-22 00:48 | 34.94545 | -109.46109 | 30129 ft | 411 kts | 265° |
| 2026-04-22 00:49 | 34.94072 | -109.53037 | 30129 ft | 411 kts | 265° |
| 2026-04-22 00:49 | 34.93592 | -109.60016 | 30129 ft | 411 kts | 265° |
| 2026-04-22 00:50 | 34.93113 | -109.66937 | 30129 ft | 411 kts | 265° |
| 2026-04-22 00:50 | 34.92628 | -109.73868 | 30129 ft | 411 kts | 265° |
| 2026-04-22 00:51 | 34.92141 | -109.80792 | 30129 ft | 411 kts | 265° |
| 2026-04-22 00:51 | 34.91649 | -109.87721 | 30129 ft | 411 kts | 265° |
| 2026-04-22 00:52 | 34.91153 | -109.94647 | 30129 ft | 411 kts | 265° |
| 2026-04-22 00:52 | 34.90650 | -110.01615 | 30129 ft | 411 kts | 265° |
| 2026-04-22 00:53 | 34.90146 | -110.08538 | 30129 ft | 411 kts | 265° |
| 2026-04-22 00:53 | 34.89639 | -110.15460 | 30129 ft | 411 kts | 265° |
| 2026-04-22 00:54 | 34.89127 | -110.22386 | 30129 ft | 411 kts | 265° |
| 2026-04-22 00:54 | 34.88612 | -110.29308 | 30129 ft | 411 kts | 265° |
| 2026-04-22 00:55 | 34.88092 | -110.36227 | 30129 ft | 411 kts | 265° |
| 2026-04-22 00:55 | 34.87304 | -110.46610 | 30129 ft | 411 kts | 265° |
| 2026-04-22 00:56 | 34.86772 | -110.53572 | 30129 ft | 411 kts | 265° |
| 2026-04-22 00:56 | 34.86239 | -110.60494 | 30129 ft | 411 kts | 265° |
| 2026-04-22 00:57 | 34.85703 | -110.67418 | 30129 ft | 411 kts | 265° |
| 2026-04-22 00:57 | 34.85162 | -110.74337 | 30129 ft | 411 kts | 265° |
| 2026-04-22 00:58 | 34.84617 | -110.81254 | 30129 ft | 411 kts | 265° |
| 2026-04-22 00:58 | 34.84068 | -110.88169 | 30129 ft | 411 kts | 265° |
| 2026-04-22 00:59 | 34.83511 | -110.95140 | 30129 ft | 411 kts | 265° |
| 2026-04-22 00:59 | 34.82954 | -111.02053 | 30129 ft | 411 kts | 264° |
| 2026-04-22 01:00 | 34.82393 | -111.08969 | 30129 ft | 411 kts | 265° |
| 2026-04-22 01:00 | 34.81828 | -111.15885 | 30129 ft | 411 kts | 264° |
| 2026-04-22 01:01 | 34.81258 | -111.22803 | 30129 ft | 411 kts | 264° |
| 2026-04-22 01:01 | 34.80685 | -111.29715 | 30129 ft | 411 kts | 264° |
| 2026-04-22 01:02 | 34.80108 | -111.36633 | 30129 ft | 411 kts | 264° |
| 2026-04-22 01:02 | 34.79524 | -111.43588 | 30129 ft | 411 kts | 264° |
| 2026-04-22 01:03 | 34.78939 | -111.50495 | 30128 ft | 411 kts | 264° |
| 2026-04-22 01:03 | 34.78349 | -111.57415 | 30129 ft | 411 kts | 264° |
| 2026-04-22 01:04 | 34.77756 | -111.64329 | 30129 ft | 412 kts | 264° |
| 2026-04-22 01:04 | 34.77159 | -111.71240 | 30129 ft | 412 kts | 264° |
| 2026-04-22 01:05 | 34.76558 | -111.78156 | 30129 ft | 412 kts | 264° |
| 2026-04-22 01:05 | 34.75949 | -111.85116 | 30129 ft | 412 kts | 264° |
| 2026-04-22 01:06 | 34.75340 | -111.92028 | 30129 ft | 412 kts | 264° |
| 2026-04-22 01:06 | 34.74727 | -111.98943 | 30129 ft | 412 kts | 264° |
| 2026-04-22 01:07 | 34.74111 | -112.05833 | 30128 ft | 412 kts | 264° |
| 2026-04-22 01:07 | 34.73488 | -112.12769 | 30129 ft | 412 kts | 264° |
| 2026-04-22 01:08 | 34.72864 | -112.19678 | 30128 ft | 412 kts | 264° |
| 2026-04-22 01:08 | 34.72236 | -112.26588 | 30129 ft | 412 kts | 264° |
| 2026-04-22 01:09 | 34.71603 | -112.33496 | 30129 ft | 412 kts | 264° |
| 2026-04-22 01:09 | 34.71071 | -112.39275 | 30129 ft | 412 kts | 264° |
| 2026-04-22 01:10 | 34.70282 | -112.46160 | 30131 ft | 412 kts | 259° |
| 2026-04-22 01:10 | 34.68899 | -112.52905 | 30134 ft | 413 kts | 255° |
| 2026-04-22 01:11 | 34.67254 | -112.59585 | 30130 ft | 413 kts | 253° |
| 2026-04-22 01:11 | 34.65524 | -112.66225 | 30129 ft | 413 kts | 253° |
| 2026-04-22 01:12 | 34.63756 | -112.72893 | 30129 ft | 413 kts | 253° |
| 2026-04-22 01:12 | 34.61990 | -112.79522 | 30129 ft | 413 kts | 253° |
| 2026-04-22 01:13 | 34.60223 | -112.86143 | 30129 ft | 413 kts | 253° |
| 2026-04-22 01:13 | 34.58453 | -112.92769 | 30129 ft | 413 kts | 253° |
| 2026-04-22 01:14 | 34.56683 | -112.99389 | 30129 ft | 413 kts | 253° |
| 2026-04-22 01:14 | 34.54910 | -113.06008 | 30129 ft | 413 kts | 253° |
| 2026-04-22 01:15 | 34.53124 | -113.12667 | 30129 ft | 413 kts | 253° |
| 2026-04-22 01:15 | 34.51346 | -113.19282 | 30129 ft | 413 kts | 253° |
| 2026-04-22 01:16 | 34.49565 | -113.25896 | 30129 ft | 413 kts | 253° |
| 2026-04-22 01:16 | 34.47780 | -113.32506 | 30129 ft | 413 kts | 253° |
| 2026-04-22 01:17 | 34.45991 | -113.39116 | 30129 ft | 413 kts | 253° |
| 2026-04-22 01:17 | 34.44201 | -113.45717 | 30129 ft | 413 kts | 253° |
| 2026-04-22 01:18 | 34.42393 | -113.52368 | 30129 ft | 413 kts | 253° |
| 2026-04-22 01:18 | 34.40595 | -113.58966 | 30129 ft | 413 kts | 252° |
| 2026-04-22 01:19 | 34.38789 | -113.65574 | 30129 ft | 413 kts | 252° |
| 2026-04-22 01:19 | 34.36985 | -113.72164 | 30129 ft | 413 kts | 252° |
| 2026-04-22 01:20 | 34.35174 | -113.78760 | 30129 ft | 414 kts | 252° |
| 2026-04-22 01:20 | 34.33361 | -113.85346 | 30129 ft | 414 kts | 252° |
| 2026-04-22 01:21 | 34.31542 | -113.91941 | 30129 ft | 414 kts | 252° |
| 2026-04-22 01:21 | 34.29709 | -113.98575 | 30129 ft | 414 kts | 252° |
| 2026-04-22 01:22 | 34.27885 | -114.05159 | 30129 ft | 414 kts | 252° |
| 2026-04-22 01:22 | 34.26058 | -114.11736 | 30129 ft | 414 kts | 252° |
| 2026-04-22 01:23 | 34.24223 | -114.18325 | 30129 ft | 414 kts | 252° |
| 2026-04-22 01:23 | 34.22388 | -114.24899 | 30128 ft | 414 kts | 252° |
| 2026-04-22 01:24 | 34.20548 | -114.31477 | 30129 ft | 414 kts | 252° |
| 2026-04-22 01:24 | 34.18694 | -114.38093 | 30129 ft | 414 kts | 252° |
| 2026-04-22 01:25 | 34.16846 | -114.44667 | 30129 ft | 414 kts | 252° |
| 2026-04-22 01:25 | 34.14998 | -114.51230 | 30129 ft | 414 kts | 252° |
| 2026-04-22 01:26 | 34.13144 | -114.57799 | 30129 ft | 414 kts | 252° |
| 2026-04-22 01:26 | 34.11268 | -114.64352 | 30129 ft | 414 kts | 250° |
| 2026-04-22 01:27 | 34.08989 | -114.70730 | 30133 ft | 415 kts | 246° |
| 2026-04-22 01:27 | 34.06408 | -114.76944 | 30130 ft | 415 kts | 244° |
| 2026-04-22 01:28 | 34.03686 | -114.83130 | 30129 ft | 416 kts | 243° |
| 2026-04-22 01:28 | 34.00943 | -114.89253 | 30129 ft | 416 kts | 243° |
| 2026-04-22 01:29 | 33.98197 | -114.95368 | 30129 ft | 416 kts | 243° |
| 2026-04-22 01:29 | 33.95455 | -115.01496 | 30129 ft | 416 kts | 243° |
| 2026-04-22 01:30 | 33.92718 | -115.07615 | 30129 ft | 416 kts | 243° |
| 2026-04-22 01:30 | 33.89982 | -115.13728 | 30128 ft | 416 kts | 243° |
| 2026-04-22 01:31 | 33.87217 | -115.19891 | 30129 ft | 416 kts | 243° |
| 2026-04-22 01:31 | 33.84470 | -115.26000 | 30129 ft | 416 kts | 243° |
| 2026-04-22 01:32 | 33.81723 | -115.32101 | 30129 ft | 416 kts | 243° |
| 2026-04-22 01:32 | 33.78968 | -115.38206 | 30094 ft | 417 kts | 243° |
| 2026-04-22 01:33 | 33.77593 | -115.41250 | 29987 ft | 410 kts | 243° |
| 2026-04-22 01:33 | 33.76251 | -115.44214 | 29863 ft | 401 kts | 243° |
| 2026-04-22 01:33 | 33.74934 | -115.47120 | 29736 ft | 393 kts | 243° |
| 2026-04-22 01:33 | 33.73644 | -115.49976 | 29609 ft | 387 kts | 243° |
| 2026-04-22 01:34 | 33.72378 | -115.52804 | 29468 ft | 382 kts | 243° |
| 2026-04-22 01:34 | 33.71118 | -115.55640 | 29243 ft | 380 kts | 244° |
| 2026-04-22 01:34 | 33.69896 | -115.58401 | 29002 ft | 379 kts | 244° |
| 2026-04-22 01:34 | 33.68647 | -115.61231 | 28750 ft | 379 kts | 244° |
| 2026-04-22 01:35 | 33.67420 | -115.64014 | 28501 ft | 378 kts | 244° |
| 2026-04-22 01:35 | 33.66193 | -115.66798 | 28252 ft | 378 kts | 244° |
| 2026-04-22 01:35 | 33.64962 | -115.69590 | 28002 ft | 378 kts | 244° |
| 2026-04-22 01:35 | 33.63724 | -115.72367 | 27754 ft | 378 kts | 243° |
| 2026-04-22 01:36 | 33.62408 | -115.75092 | 27508 ft | 379 kts | 240° |
| 2026-04-22 01:36 | 33.61022 | -115.77771 | 27262 ft | 379 kts | 239° |
| 2026-04-22 01:36 | 33.59585 | -115.80422 | 27013 ft | 379 kts | 238° |
| 2026-04-22 01:36 | 33.58117 | -115.83044 | 26764 ft | 379 kts | 238° |
| 2026-04-22 01:37 | 33.56627 | -115.85652 | 26515 ft | 380 kts | 237° |
| 2026-04-22 01:37 | 33.55124 | -115.88249 | 26266 ft | 380 kts | 237° |
| 2026-04-22 01:37 | 33.53612 | -115.90844 | 26016 ft | 380 kts | 237° |
| 2026-04-22 01:37 | 33.52080 | -115.93476 | 25764 ft | 380 kts | 237° |
| 2026-04-22 01:38 | 33.50569 | -115.96073 | 25515 ft | 381 kts | 237° |
| 2026-04-22 01:38 | 33.49057 | -115.98676 | 25156 ft | 380 kts | 237° |
| 2026-04-22 01:38 | 33.47564 | -116.01244 | 24568 ft | 374 kts | 237° |
| 2026-04-22 01:38 | 33.46093 | -116.03775 | 23951 ft | 369 kts | 237° |
| 2026-04-22 01:39 | 33.44636 | -116.06282 | 23327 ft | 365 kts | 237° |
| 2026-04-22 01:39 | 33.43194 | -116.08762 | 22704 ft | 363 kts | 237° |
| 2026-04-22 01:39 | 33.41762 | -116.11227 | 22080 ft | 360 kts | 237° |
| 2026-04-22 01:39 | 33.40336 | -116.13680 | 21455 ft | 358 kts | 237° |
| 2026-04-22 01:40 | 33.38918 | -116.16118 | 20831 ft | 357 kts | 237° |
| 2026-04-22 01:40 | 33.37505 | -116.18547 | 20207 ft | 355 kts | 237° |
| 2026-04-22 01:40 | 33.36091 | -116.20961 | 19584 ft | 355 kts | 236° |
| 2026-04-22 01:40 | 33.34434 | -116.23082 | 19406 ft | 345 kts | 225° |
| 2026-04-22 01:41 | 33.32555 | -116.24855 | 19276 ft | 336 kts | 218° |
| 2026-04-22 01:41 | 33.30616 | -116.26378 | 18920 ft | 334 kts | 215° |
| 2026-04-22 01:41 | 33.28598 | -116.27792 | 18313 ft | 340 kts | 213° |
| 2026-04-22 01:41 | 33.26513 | -116.29148 | 17697 ft | 344 kts | 211° |
| 2026-04-22 01:42 | 33.24385 | -116.30466 | 17074 ft | 345 kts | 210° |
| 2026-04-22 01:42 | 33.22259 | -116.31743 | 16451 ft | 340 kts | 210° |
| 2026-04-22 01:42 | 33.20153 | -116.32987 | 15825 ft | 336 kts | 210° |
| 2026-04-22 01:42 | 33.18074 | -116.34202 | 15201 ft | 332 kts | 210° |
| 2026-04-22 01:43 | 33.16014 | -116.35403 | 14576 ft | 328 kts | 209° |
| 2026-04-22 01:43 | 33.13971 | -116.36592 | 13951 ft | 326 kts | 209° |
| 2026-04-22 01:43 | 33.11950 | -116.37768 | 13329 ft | 323 kts | 209° |
| 2026-04-22 01:43 | 33.09941 | -116.38938 | 12706 ft | 321 kts | 209° |
| 2026-04-22 01:44 | 33.07945 | -116.40101 | 12337 ft | 312 kts | 210° |
| 2026-04-22 01:44 | 33.05967 | -116.41253 | 12208 ft | 312 kts | 210° |
| 2026-04-22 01:44 | 33.04044 | -116.42395 | 12084 ft | 307 kts | 211° |
| 2026-04-22 01:44 | 33.02206 | -116.43669 | 11854 ft | 307 kts | 215° |
| 2026-04-22 01:45 | 33.00423 | -116.45084 | 11521 ft | 310 kts | 218° |
| 2026-04-22 01:45 | 32.98684 | -116.46597 | 11223 ft | 311 kts | 220° |
| 2026-04-22 01:45 | 32.96975 | -116.48174 | 10924 ft | 312 kts | 221° |
| 2026-04-22 01:45 | 32.95282 | -116.49797 | 10625 ft | 313 kts | 222° |
| 2026-04-22 01:46 | 32.93607 | -116.51443 | 10326 ft | 314 kts | 223° |
| 2026-04-22 01:46 | 32.91935 | -116.53109 | 10027 ft | 314 kts | 223° |
| 2026-04-22 01:46 | 32.90264 | -116.54787 | 9728 ft | 315 kts | 223° |
| 2026-04-22 01:46 | 32.88597 | -116.56469 | 9429 ft | 315 kts | 223° |
| 2026-04-22 01:47 | 32.86934 | -116.58148 | 9131 ft | 312 kts | 223° |
| 2026-04-22 01:47 | 32.85305 | -116.59789 | 8826 ft | 302 kts | 223° |
| 2026-04-22 01:47 | 32.83704 | -116.61400 | 8520 ft | 295 kts | 223° |
| 2026-04-22 01:47 | 32.82151 | -116.62963 | 8219 ft | 291 kts | 223° |
| 2026-04-22 01:48 | 32.80641 | -116.64483 | 8154 ft | 279 kts | 223° |
| 2026-04-22 01:48 | 32.79217 | -116.65996 | 8101 ft | 271 kts | 227° |
| 2026-04-22 01:48 | 32.77945 | -116.67619 | 7984 ft | 269 kts | 232° |
| 2026-04-22 01:48 | 32.76779 | -116.69396 | 7530 ft | 278 kts | 237° |
| 2026-04-22 01:49 | 32.75695 | -116.71329 | 7083 ft | 285 kts | 240° |
| 2026-04-22 01:49 | 32.74674 | -116.73363 | 6638 ft | 290 kts | 242° |
| 2026-04-22 01:49 | 32.73681 | -116.75465 | 6263 ft | 292 kts | 243° |
| 2026-04-22 01:49 | 32.72722 | -116.77542 | 6173 ft | 284 kts | 243° |
| 2026-04-22 01:50 | 32.71801 | -116.79601 | 6070 ft | 288 kts | 244° |
| 2026-04-22 01:50 | 32.70947 | -116.81682 | 6019 ft | 274 kts | 246° |
| 2026-04-22 01:50 | 32.70196 | -116.83696 | 6000 ft | 260 kts | 248° |
| 2026-04-22 01:50 | 32.69571 | -116.85733 | 5811 ft | 273 kts | 255° |
| 2026-04-22 01:51 | 32.69228 | -116.87985 | 5539 ft | 277 kts | 263° |
| 2026-04-22 01:51 | 32.69107 | -116.90280 | 5266 ft | 280 kts | 268° |
| 2026-04-22 01:51 | 32.69119 | -116.92582 | 5153 ft | 277 kts | 271° |
| 2026-04-22 01:51 | 32.69204 | -116.94841 | 5060 ft | 274 kts | 272° |
| 2026-04-22 01:52 | 32.69325 | -116.97081 | 4566 ft | 271 kts | 273° |
| 2026-04-22 01:52 | 32.69462 | -116.99296 | 4065 ft | 267 kts | 273° |
| 2026-04-22 01:52 | 32.69629 | -117.01472 | 3565 ft | 264 kts | 276° |
| 2026-04-22 01:52 | 32.69909 | -117.03602 | 3071 ft | 261 kts | 279° |
| 2026-04-22 01:53 | 32.70277 | -117.05707 | 2573 ft | 260 kts | 281° |
| 2026-04-22 01:53 | 32.70697 | -117.07759 | 2265 ft | 247 kts | 283° |
| 2026-04-22 01:53 | 32.71128 | -117.09684 | 1993 ft | 236 kts | 283° |
| 2026-04-22 01:53 | 32.71559 | -117.11504 | 1651 ft | 224 kts | 285° |
| 2026-04-22 01:54 | 32.71981 | -117.13198 | 1549 ft | 175 kts | 284° |
| 2026-04-22 01:54 | 32.72285 | -117.14358 | 1270 ft | 133 kts | 285° |
| 2026-04-22 01:54 | 32.72531 | -117.15394 | 830 ft | 132 kts | 282° |
| 2026-04-22 01:54 | 32.72764 | -117.16447 | 405 ft | 127 kts | 281° |
| 2026-04-22 01:55 | 32.72984 | -117.17393 | 140 ft | 115 kts | 282° |
| 2026-04-22 01:55 | 32.73183 | -117.18235 | 29 ft | 95 kts | 282° |
| 2026-04-22 01:55 | 32.73330 | -117.18893 | 20 ft | 70 kts | 279° |
| 2026-04-22 01:55 | 32.73443 | -117.19329 | 20 ft | 36 kts | 276° |
| 2026-04-22 01:56 | 32.73419 | -117.19483 | 20 ft | 11 kts | 219° |
| 2026-04-22 01:56 | 32.73394 | -117.19490 | 20 ft | 0 kts | 162° |
| 2026-04-22 01:57 | 32.73385 | -117.19486 | 20 ft | 5 kts | 155° |
| 2026-04-22 01:57 | 32.73371 | -117.19460 | 20 ft | 0 kts | 108° |
| 2026-04-22 01:57 | 32.73359 | -117.19417 | 20 ft | 11 kts | 105° |
| 2026-04-22 01:58 | 32.73332 | -117.19297 | 20 ft | 19 kts | 107° |
| 2026-04-22 01:58 | 32.73284 | -117.19099 | 20 ft | 28 kts | 107° |
| 2026-04-22 01:58 | 32.73229 | -117.18888 | 20 ft | 22 kts | 108° |
| 2026-04-22 01:58 | 32.73193 | -117.18733 | 20 ft | 21 kts | 107° |
| 2026-04-22 01:59 | 32.73150 | -117.18570 | 20 ft | 16 kts | 107° |
| 2026-04-22 01:59 | 32.73148 | -117.18497 | 20 ft | 3 kts | 56° |
| 2026-04-22 01:59 | 32.73148 | -117.18496 | 20 ft | 0 kts | 54° |
| 2026-04-22 02:00 | 32.73155 | -117.18485 | 20 ft | 5 kts | 50° |
| 2026-04-22 02:01 | 32.73205 | -117.18461 | 20 ft | 11 kts | 12° |
| 2026-04-22 02:01 | 32.73302 | -117.18425 | 20 ft | 14 kts | 29° |
| 2026-04-22 02:01 | 32.73323 | -117.18371 | 20 ft | 6 kts | 105° |
| 2026-04-22 02:01 | 32.73308 | -117.18305 | 20 ft | 11 kts | 105° |
| 2026-04-22 02:02 | 32.73283 | -117.18204 | 20 ft | 15 kts | 107° |
| 2026-04-22 02:02 | 32.73265 | -117.18131 | 20 ft | 3 kts | 107° |
| 2026-04-22 02:02 | 32.73264 | -117.18127 | 20 ft | 1 kts | 107° |
| 2026-04-22 02:02 | 32.73254 | -117.18091 | 20 ft | 8 kts | 107° |
| 2026-04-22 02:03 | 32.73243 | -117.18023 | 20 ft | 1 kts | 68° |
| 2026-04-22 02:03 | 32.73257 | -117.17988 | 20 ft | 8 kts | 63° |
| 2026-04-22 02:03 | 32.73270 | -117.17969 | 20 ft | 4 kts | 16° |
| 2026-04-22 02:03 | 32.73278 | -117.17968 | 20 ft | 3 kts | 0° |
| 2026-04-22 02:04 | 32.73303 | -117.17956 | 20 ft | 0 kts | 49° |
| 2026-04-22 02:04 | 32.73320 | -117.17943 | 20 ft | 6 kts | 358° |
| 2026-04-22 02:04 | 32.73384 | -117.17934 | 20 ft | 8 kts | 30° |
| 2026-04-22 02:05 | 32.73401 | -117.17887 | 20 ft | 3 kts | 70° |
| 2026-04-22 02:05 | 32.73404 | -117.17879 | 20 ft | 0 kts | 70° |
| 2026-04-22 02:05 | 32.73404 | -117.17878 | 20 ft | 0 kts | 70° |